Change Of Latitude — WDF6082 — position and weather

sailwx.info

Track history (hours):
 
Tides and Currents Weather Stations Pressure Air Temp Water Temp Dewpoint Dewpoint Depression Visibility Wind Speed Wind Dir Waves Ship Positions

Change Of Latitude

Owner: Donrah LLC, Bellingham, WA. More information available from US FCC via Universal Licensing System and Coast Guard Vessel Documentation Center.

Last reported at 2015-Aug-27 22:26 UTC. Time now 2015-Aug-29 06:12 UTC.
Position N 48°36' W 122°49'.

Length 15 m.

Type: Pleasure craft. MMSI: 367470440.

Date/timePositionNaut miles runAvg speedWind from/ knotsBaromVisibWave heightAir tempDewpointWater temp
2015-Aug-27 22:26N 48°36' W 122°49'3 0.2
2015-Aug-27 00:10N 48°34' W 122°54'4 6.6
2015-Aug-26 23:32N 48°31' W 122°57'5 1.6
2015-Aug-26 20:31N 48°26' W 122°58'6 6.6
2015-Aug-26 19:33N 48°32' W 122°58'2 2.1
2015-Aug-26 18:27N 48°32' W 123°01'0 0.0
2015-Aug-26 17:18N 48°32' W 123°01'0 0.0
2015-Aug-26 16:30N 48°32' W 123°01'0 0.0
2015-Aug-26 15:30N 48°32' W 123°01'0 0.0
2015-Aug-26 14:30N 48°32' W 123°01'0 0.0
2015-Aug-26 13:21N 48°32' W 123°01'0 0.0
2015-Aug-26 12:30N 48°32' W 123°01'0 0.0
2015-Aug-26 11:30N 48°32' W 123°01'0 0.0
2015-Aug-26 10:33N 48°32' W 123°01'0 0.0
2015-Aug-26 09:33N 48°32' W 123°01'0 0.0
2015-Aug-26 08:33N 48°32' W 123°01'0 0.0
2015-Aug-26 07:33N 48°32' W 123°01'0 0.0
2015-Aug-26 06:33N 48°32' W 123°01'0 0.0
2015-Aug-26 05:30N 48°32' W 123°01'0 0.0
2015-Aug-26 04:18N 48°32' W 123°01'0 0.0
2015-Aug-25 23:33N 48°32' W 123°01'0 0.0
2015-Aug-25 22:19N 48°32' W 123°01'0 0.0
2015-Aug-25 21:31N 48°32' W 123°01'0 0.1
2015-Aug-25 20:24N 48°32' W 123°01'  
2015-Aug-20 18:33N 48°36' W 122°50'3 0.1
2015-Aug-19 19:08N 48°35' W 122°54'5 8.5
2015-Aug-19 18:33N 48°33' W 123°01'0 0.2
2015-Aug-19 17:31N 48°33' W 123°01'0 0.0
2015-Aug-19 16:28N 48°33' W 123°01'0 0.0
2015-Aug-19 15:31N 48°33' W 123°01'0 0.0
2015-Aug-19 13:31N 48°33' W 123°01'0 0.0
2015-Aug-19 12:31N 48°33' W 123°01'0 0.0
2015-Aug-19 11:31N 48°33' W 123°01'0 0.0
2015-Aug-19 10:31N 48°33' W 123°01'0 0.0
2015-Aug-19 09:22N 48°33' W 123°01'0 0.0
2015-Aug-19 08:31N 48°33' W 123°01'0 0.0
2015-Aug-19 07:25N 48°33' W 123°01'0 0.0
2015-Aug-19 06:28N 48°33' W 123°01'0 0.0
2015-Aug-19 05:31N 48°33' W 123°01'0 0.0
2015-Aug-19 04:31N 48°33' W 123°01'0 0.0
2015-Aug-19 03:28N 48°33' W 123°01'0 0.0
2015-Aug-19 02:31N 48°33' W 123°01'0 0.0
2015-Aug-19 01:28N 48°33' W 123°01'0 0.0
2015-Aug-19 00:28N 48°33' W 123°01'0 0.0
2015-Aug-18 23:28N 48°33' W 123°01'0 0.0
2015-Aug-18 22:25N 48°33' W 123°01'0 0.0
2015-Aug-18 21:31N 48°33' W 123°01'1 1.2
2015-Aug-18 20:33N 48°33' W 122°59'7 3.5
2015-Aug-18 18:34N 48°31' W 123°10'  
Track history (hours):
 
Tides and Currents Weather Stations Pressure Air Temp Water Temp Dewpoint Dewpoint Depression Visibility Wind Speed Wind Dir Waves Ship Positions

Change Of Latitude

Owner: Donrah LLC, Bellingham, WA. More information available from US FCC via Universal Licensing System and Coast Guard Vessel Documentation Center.

Last reported at 2015-Aug-27 22:26 UTC. Time now 2015-Aug-29 06:12 UTC.
Position N 48°36' W 122°49'.

Length 15 m.

Type: Pleasure craft. MMSI: 367470440.

Date/timePositionNaut miles runAvg speedWind from/ knotsBaromVisibWave heightAir tempDewpointWater temp
2015-Aug-27 22:26N 48°36' W 122°49'3 0.2
2015-Aug-27 00:10N 48°34' W 122°54'4 6.6
2015-Aug-26 23:32N 48°31' W 122°57'5 1.6
2015-Aug-26 20:31N 48°26' W 122°58'6 6.6
2015-Aug-26 19:33N 48°32' W 122°58'2 2.1
2015-Aug-26 18:27N 48°32' W 123°01'0 0.0
2015-Aug-26 17:18N 48°32' W 123°01'0 0.0
2015-Aug-26 16:30N 48°32' W 123°01'0 0.0
2015-Aug-26 15:30N 48°32' W 123°01'0 0.0
2015-Aug-26 14:30N 48°32' W 123°01'0 0.0
2015-Aug-26 13:21N 48°32' W 123°01'0 0.0
2015-Aug-26 12:30N 48°32' W 123°01'0 0.0
2015-Aug-26 11:30N 48°32' W 123°01'0 0.0
2015-Aug-26 10:33N 48°32' W 123°01'0 0.0
2015-Aug-26 09:33N 48°32' W 123°01'0 0.0
2015-Aug-26 08:33N 48°32' W 123°01'0 0.0
2015-Aug-26 07:33N 48°32' W 123°01'0 0.0
2015-Aug-26 06:33N 48°32' W 123°01'0 0.0
2015-Aug-26 05:30N 48°32' W 123°01'0 0.0
2015-Aug-26 04:18N 48°32' W 123°01'0 0.0
2015-Aug-25 23:33N 48°32' W 123°01'0 0.0
2015-Aug-25 22:19N 48°32' W 123°01'0 0.0
2015-Aug-25 21:31N 48°32' W 123°01'0 0.1
2015-Aug-25 20:24N 48°32' W 123°01'  
2015-Aug-20 18:33N 48°36' W 122°50'3 0.1
2015-Aug-19 19:08N 48°35' W 122°54'5 8.5
2015-Aug-19 18:33N 48°33' W 123°01'0 0.2
2015-Aug-19 17:31N 48°33' W 123°01'0 0.0
2015-Aug-19 16:28N 48°33' W 123°01'0 0.0
2015-Aug-19 15:31N 48°33' W 123°01'0 0.0
2015-Aug-19 13:31N 48°33' W 123°01'0 0.0
2015-Aug-19 12:31N 48°33' W 123°01'0 0.0
2015-Aug-19 11:31N 48°33' W 123°01'0 0.0
2015-Aug-19 10:31N 48°33' W 123°01'0 0.0
2015-Aug-19 09:22N 48°33' W 123°01'0 0.0
2015-Aug-19 08:31N 48°33' W 123°01'0 0.0
2015-Aug-19 07:25N 48°33' W 123°01'0 0.0
2015-Aug-19 06:28N 48°33' W 123°01'0 0.0
2015-Aug-19 05:31N 48°33' W 123°01'0 0.0
2015-Aug-19 04:31N 48°33' W 123°01'0 0.0
2015-Aug-19 03:28N 48°33' W 123°01'0 0.0
2015-Aug-19 02:31N 48°33' W 123°01'0 0.0
2015-Aug-19 01:28N 48°33' W 123°01'0 0.0
2015-Aug-19 00:28N 48°33' W 123°01'0 0.0
2015-Aug-18 23:28N 48°33' W 123°01'0 0.0
2015-Aug-18 22:25N 48°33' W 123°01'0 0.0
2015-Aug-18 21:31N 48°33' W 123°01'1 1.2
2015-Aug-18 20:33N 48°33' W 122°59'7 3.5
2015-Aug-18 18:34N 48°31' W 123°10'  

Dump ship's entire track history